sensor_id;sensor_type;location;lat;lon;timestamp;P1;durP1;ratioP1;P2;durP2;ratioP2
60030;SDS011;45901;47.600;9.890;2023-03-01T00:01:15;24.73;;;15.27;;
60030;SDS011;45901;47.600;9.890;2023-03-01T00:03:44;23.37;;;14.30;;
60030;SDS011;45901;47.600;9.890;2023-03-01T00:06:12;23.57;;;14.17;;
60030;SDS011;45901;47.600;9.890;2023-03-01T00:08:39;25.30;;;15.40;;
60030;SDS011;45901;47.600;9.890;2023-03-01T00:11:08;25.07;;;15.37;;
60030;SDS011;45901;47.600;9.890;2023-03-01T00:13:38;25.87;;;15.33;;
60030;SDS011;45901;47.600;9.890;2023-03-01T00:16:08;26.17;;;15.27;;
60030;SDS011;45901;47.600;9.890;2023-03-01T00:18:39;28.67;;;15.73;;
60030;SDS011;45901;47.600;9.890;2023-03-01T00:21:06;24.00;;;15.00;;
60030;SDS011;45901;47.600;9.890;2023-03-01T00:23:34;26.20;;;14.97;;
60030;SDS011;45901;47.600;9.890;2023-03-01T00:26:02;25.57;;;15.23;;
60030;SDS011;45901;47.600;9.890;2023-03-01T00:28:33;22.00;;;14.20;;
60030;SDS011;45901;47.600;9.890;2023-03-01T00:31:02;24.50;;;15.20;;
60030;SDS011;45901;47.600;9.890;2023-03-01T00:33:30;23.47;;;15.60;;
60030;SDS011;45901;47.600;9.890;2023-03-01T00:35:59;24.90;;;15.63;;
60030;SDS011;45901;47.600;9.890;2023-03-01T00:38:27;23.10;;;15.20;;
60030;SDS011;45901;47.600;9.890;2023-03-01T00:40:54;23.80;;;15.67;;
60030;SDS011;45901;47.600;9.890;2023-03-01T00:43:21;26.47;;;15.27;;
60030;SDS011;45901;47.600;9.890;2023-03-01T00:45:48;25.07;;;15.17;;
60030;SDS011;45901;47.600;9.890;2023-03-01T00:48:15;22.20;;;14.03;;
60030;SDS011;45901;47.600;9.890;2023-03-01T00:50:42;23.67;;;15.23;;
60030;SDS011;45901;47.600;9.890;2023-03-01T00:53:11;26.63;;;16.00;;
60030;SDS011;45901;47.600;9.890;2023-03-01T00:55:38;24.07;;;15.03;;
60030;SDS011;45901;47.600;9.890;2023-03-01T00:58:05;22.57;;;14.43;;
60030;SDS011;45901;47.600;9.890;2023-03-01T01:00:33;23.50;;;15.17;;
60030;SDS011;45901;47.600;9.890;2023-03-01T01:03:01;25.90;;;15.57;;
60030;SDS011;45901;47.600;9.890;2023-03-01T01:05:28;25.43;;;15.07;;
60030;SDS011;45901;47.600;9.890;2023-03-01T01:07:55;29.03;;;15.53;;
60030;SDS011;45901;47.600;9.890;2023-03-01T01:10:24;25.40;;;15.60;;
60030;SDS011;45901;47.600;9.890;2023-03-01T01:12:51;24.20;;;16.07;;
60030;SDS011;45901;47.600;9.890;2023-03-01T01:15:19;25.93;;;15.90;;
60030;SDS011;45901;47.600;9.890;2023-03-01T01:17:46;23.33;;;14.53;;
60030;SDS011;45901;47.600;9.890;2023-03-01T01:20:13;23.60;;;15.10;;
60030;SDS011;45901;47.600;9.890;2023-03-01T01:22:40;24.27;;;14.43;;
60030;SDS011;45901;47.600;9.890;2023-03-01T01:25:08;26.27;;;15.13;;
60030;SDS011;45901;47.600;9.890;2023-03-01T01:27:37;25.77;;;15.30;;
60030;SDS011;45901;47.600;9.890;2023-03-01T01:30:04;28.93;;;14.93;;
60030;SDS011;45901;47.600;9.890;2023-03-01T01:32:33;24.70;;;14.73;;
60030;SDS011;45901;47.600;9.890;2023-03-01T01:35:00;27.20;;;15.87;;
60030;SDS011;45901;47.600;9.890;2023-03-01T01:37:27;26.63;;;16.00;;
60030;SDS011;45901;47.600;9.890;2023-03-01T01:39:56;24.20;;;14.77;;
60030;SDS011;45901;47.600;9.890;2023-03-01T01:42:24;25.17;;;15.73;;
60030;SDS011;45901;47.600;9.890;2023-03-01T01:48:00;24.03;;;13.87;;
60030;SDS011;45901;47.600;9.890;2023-03-01T01:50:31;22.50;;;14.17;;
60030;SDS011;45901;47.600;9.890;2023-03-01T01:53:05;24.87;;;14.13;;
60030;SDS011;45901;47.600;9.890;2023-03-01T01:55:38;24.30;;;13.17;;
60030;SDS011;45901;47.600;9.890;2023-03-01T01:58:09;26.17;;;15.63;;
60030;SDS011;45901;47.600;9.890;2023-03-01T02:00:41;23.97;;;14.40;;
60030;SDS011;45901;47.600;9.890;2023-03-01T02:03:10;25.10;;;14.93;;
60030;SDS011;45901;47.600;9.890;2023-03-01T02:05:44;22.53;;;14.77;;
60030;SDS011;45901;47.600;9.890;2023-03-01T02:08:17;22.40;;;14.27;;
60030;SDS011;45901;47.600;9.890;2023-03-01T02:10:48;27.13;;;16.10;;
60030;SDS011;45901;47.600;9.890;2023-03-01T02:13:17;24.60;;;15.53;;
60030;SDS011;45901;47.600;9.890;2023-03-01T02:15:46;26.83;;;16.13;;
60030;SDS011;45901;47.600;9.890;2023-03-01T02:18:14;23.67;;;15.40;;
60030;SDS011;45901;47.600;9.890;2023-03-01T02:20:48;24.20;;;14.57;;
60030;SDS011;45901;47.600;9.890;2023-03-01T02:23:28;24.07;;;14.93;;
60030;SDS011;45901;47.600;9.890;2023-03-01T02:25:58;25.80;;;14.63;;
60030;SDS011;45901;47.600;9.890;2023-03-01T02:28:34;26.70;;;16.07;;
60030;SDS011;45901;47.600;9.890;2023-03-01T02:31:03;27.80;;;15.73;;
60030;SDS011;45901;47.600;9.890;2023-03-01T02:33:51;26.53;;;16.00;;
60030;SDS011;45901;47.600;9.890;2023-03-01T02:36:20;24.10;;;14.87;;
60030;SDS011;45901;47.600;9.890;2023-03-01T02:38:52;25.03;;;13.93;;
60030;SDS011;45901;47.600;9.890;2023-03-01T02:41:23;23.30;;;14.67;;
60030;SDS011;45901;47.600;9.890;2023-03-01T02:43:53;31.03;;;15.43;;
60030;SDS011;45901;47.600;9.890;2023-03-01T02:46:22;25.40;;;14.90;;
60030;SDS011;45901;47.600;9.890;2023-03-01T02:48:53;25.70;;;15.57;;
60030;SDS011;45901;47.600;9.890;2023-03-01T02:51:28;26.40;;;15.60;;
60030;SDS011;45901;47.600;9.890;2023-03-01T02:54:15;25.10;;;14.90;;
60030;SDS011;45901;47.600;9.890;2023-03-01T02:56:49;28.87;;;15.60;;
60030;SDS011;45901;47.600;9.890;2023-03-01T02:59:19;24.50;;;14.60;;
60030;SDS011;45901;47.600;9.890;2023-03-01T03:01:49;25.27;;;14.63;;
60030;SDS011;45901;47.600;9.890;2023-03-01T03:04:17;25.80;;;15.20;;
60030;SDS011;45901;47.600;9.890;2023-03-01T03:06:46;25.47;;;15.93;;
60030;SDS011;45901;47.600;9.890;2023-03-01T03:09:16;23.30;;;14.30;;
60030;SDS011;45901;47.600;9.890;2023-03-01T03:11:44;24.90;;;15.23;;
60030;SDS011;45901;47.600;9.890;2023-03-01T03:14:13;25.43;;;15.27;;
60030;SDS011;45901;47.600;9.890;2023-03-01T03:16:44;29.10;;;15.37;;
60030;SDS011;45901;47.600;9.890;2023-03-01T03:19:14;24.80;;;15.53;;
60030;SDS011;45901;47.600;9.890;2023-03-01T03:21:42;23.23;;;14.17;;
60030;SDS011;45901;47.600;9.890;2023-03-01T03:24:09;25.93;;;15.23;;
60030;SDS011;45901;47.600;9.890;2023-03-01T03:26:37;24.83;;;14.43;;
60030;SDS011;45901;47.600;9.890;2023-03-01T03:29:04;25.90;;;14.83;;
60030;SDS011;45901;47.600;9.890;2023-03-01T03:31:31;25.77;;;16.23;;
60030;SDS011;45901;47.600;9.890;2023-03-01T03:33:59;27.17;;;15.27;;
60030;SDS011;45901;47.600;9.890;2023-03-01T03:36:27;26.43;;;15.47;;
60030;SDS011;45901;47.600;9.890;2023-03-01T03:38:54;25.07;;;15.10;;
60030;SDS011;45901;47.600;9.890;2023-03-01T03:41:21;25.37;;;15.40;;
60030;SDS011;45901;47.600;9.890;2023-03-01T03:43:49;23.93;;;14.37;;
60030;SDS011;45901;47.600;9.890;2023-03-01T03:46:16;24.13;;;14.30;;
60030;SDS011;45901;47.600;9.890;2023-03-01T03:48:43;27.47;;;15.93;;
60030;SDS011;45901;47.600;9.890;2023-03-01T03:51:13;24.67;;;15.00;;
60030;SDS011;45901;47.600;9.890;2023-03-01T03:53:42;26.57;;;15.20;;
60030;SDS011;45901;47.600;9.890;2023-03-01T03:56:11;25.37;;;15.67;;
60030;SDS011;45901;47.600;9.890;2023-03-01T03:58:38;26.07;;;15.83;;
60030;SDS011;45901;47.600;9.890;2023-03-01T04:01:06;26.73;;;15.37;;
60030;SDS011;45901;47.600;9.890;2023-03-01T04:03:33;27.43;;;15.77;;
60030;SDS011;45901;47.600;9.890;2023-03-01T04:06:01;24.13;;;15.33;;
60030;SDS011;45901;47.600;9.890;2023-03-01T04:08:32;24.93;;;15.80;;
60030;SDS011;45901;47.600;9.890;2023-03-01T04:11:00;23.43;;;14.97;;
60030;SDS011;45901;47.600;9.890;2023-03-01T04:13:51;25.67;;;15.33;;
60030;SDS011;45901;47.600;9.890;2023-03-01T04:16:22;28.00;;;15.77;;
60030;SDS011;45901;47.600;9.890;2023-03-01T04:18:50;29.33;;;16.60;;
60030;SDS011;45901;47.600;9.890;2023-03-01T04:21:18;29.10;;;16.07;;
60030;SDS011;45901;47.600;9.890;2023-03-01T04:23:47;33.10;;;16.73;;
60030;SDS011;45901;47.600;9.890;2023-03-01T04:26:17;33.13;;;17.87;;
60030;SDS011;45901;47.600;9.890;2023-03-01T04:28:45;29.40;;;16.17;;
60030;SDS011;45901;47.600;9.890;2023-03-01T04:31:16;30.00;;;16.90;;
60030;SDS011;45901;47.600;9.890;2023-03-01T04:33:47;30.87;;;17.33;;
60030;SDS011;45901;47.600;9.890;2023-03-01T04:36:17;28.43;;;16.47;;
60030;SDS011;45901;47.600;9.890;2023-03-01T04:38:48;27.87;;;16.50;;
60030;SDS011;45901;47.600;9.890;2023-03-01T04:41:15;33.20;;;18.33;;
60030;SDS011;45901;47.600;9.890;2023-03-01T04:43:46;30.43;;;17.47;;
60030;SDS011;45901;47.600;9.890;2023-03-01T04:46:14;34.73;;;18.90;;
60030;SDS011;45901;47.600;9.890;2023-03-01T04:48:44;31.43;;;18.30;;
60030;SDS011;45901;47.600;9.890;2023-03-01T04:51:12;32.17;;;18.43;;
60030;SDS011;45901;47.600;9.890;2023-03-01T04:53:39;30.97;;;17.97;;
60030;SDS011;45901;47.600;9.890;2023-03-01T04:56:09;31.13;;;18.57;;
60030;SDS011;45901;47.600;9.890;2023-03-01T04:58:38;31.40;;;18.53;;
60030;SDS011;45901;47.600;9.890;2023-03-01T05:01:09;30.70;;;17.40;;
60030;SDS011;45901;47.600;9.890;2023-03-01T05:03:40;28.23;;;17.23;;
60030;SDS011;45901;47.600;9.890;2023-03-01T05:06:09;28.27;;;14.57;;
60030;SDS011;45901;47.600;9.890;2023-03-01T05:08:36;26.13;;;15.20;;
60030;SDS011;45901;47.600;9.890;2023-03-01T05:11:04;28.73;;;15.57;;
60030;SDS011;45901;47.600;9.890;2023-03-01T05:13:35;24.33;;;14.83;;
60030;SDS011;45901;47.600;9.890;2023-03-01T05:16:04;27.90;;;14.80;;
60030;SDS011;45901;47.600;9.890;2023-03-01T05:18:36;26.03;;;15.93;;
60030;SDS011;45901;47.600;9.890;2023-03-01T05:21:05;24.93;;;15.27;;
60030;SDS011;45901;47.600;9.890;2023-03-01T05:23:34;28.53;;;15.40;;
60030;SDS011;45901;47.600;9.890;2023-03-01T05:26:02;28.33;;;16.33;;
60030;SDS011;45901;47.600;9.890;2023-03-01T05:28:32;29.07;;;16.33;;
60030;SDS011;45901;47.600;9.890;2023-03-01T05:31:01;25.63;;;14.73;;
60030;SDS011;45901;47.600;9.890;2023-03-01T05:33:34;26.67;;;15.40;;
60030;SDS011;45901;47.600;9.890;2023-03-01T05:36:04;26.50;;;16.40;;
60030;SDS011;45901;47.600;9.890;2023-03-01T05:38:32;26.40;;;15.57;;
60030;SDS011;45901;47.600;9.890;2023-03-01T05:40:59;30.60;;;16.37;;
60030;SDS011;45901;47.600;9.890;2023-03-01T05:43:29;27.13;;;16.03;;
60030;SDS011;45901;47.600;9.890;2023-03-01T05:46:00;31.70;;;16.93;;
60030;SDS011;45901;47.600;9.890;2023-03-01T05:48:27;28.03;;;16.37;;
60030;SDS011;45901;47.600;9.890;2023-03-01T05:50:54;26.43;;;15.97;;
60030;SDS011;45901;47.600;9.890;2023-03-01T05:53:25;28.80;;;16.57;;
60030;SDS011;45901;47.600;9.890;2023-03-01T05:55:52;27.47;;;16.83;;
60030;SDS011;45901;47.600;9.890;2023-03-01T05:58:19;29.93;;;17.10;;
60030;SDS011;45901;47.600;9.890;2023-03-01T06:00:47;30.07;;;17.33;;
60030;SDS011;45901;47.600;9.890;2023-03-01T06:03:17;30.40;;;17.73;;
60030;SDS011;45901;47.600;9.890;2023-03-01T06:05:44;28.37;;;16.60;;
60030;SDS011;45901;47.600;9.890;2023-03-01T06:08:12;28.50;;;16.47;;
60030;SDS011;45901;47.600;9.890;2023-03-01T06:10:39;28.33;;;17.33;;
60030;SDS011;45901;47.600;9.890;2023-03-01T06:13:07;29.00;;;17.00;;
60030;SDS011;45901;47.600;9.890;2023-03-01T06:15:34;29.27;;;17.63;;
60030;SDS011;45901;47.600;9.890;2023-03-01T06:18:01;28.97;;;16.93;;
60030;SDS011;45901;47.600;9.890;2023-03-01T06:20:30;26.40;;;16.53;;
60030;SDS011;45901;47.600;9.890;2023-03-01T06:22:58;31.47;;;17.57;;
60030;SDS011;45901;47.600;9.890;2023-03-01T06:25:26;29.10;;;17.00;;
60030;SDS011;45901;47.600;9.890;2023-03-01T06:27:54;31.17;;;18.70;;
60030;SDS011;45901;47.600;9.890;2023-03-01T06:30:22;28.87;;;16.37;;
60030;SDS011;45901;47.600;9.890;2023-03-01T06:32:51;31.43;;;17.03;;
60030;SDS011;45901;47.600;9.890;2023-03-01T06:35:25;31.50;;;17.80;;
60030;SDS011;45901;47.600;9.890;2023-03-01T06:37:56;27.97;;;16.93;;
60030;SDS011;45901;47.600;9.890;2023-03-01T06:40:24;29.40;;;17.07;;
60030;SDS011;45901;47.600;9.890;2023-03-01T06:42:52;28.00;;;17.10;;
60030;SDS011;45901;47.600;9.890;2023-03-01T06:45:20;29.00;;;16.87;;
60030;SDS011;45901;47.600;9.890;2023-03-01T06:47:47;30.17;;;17.90;;
60030;SDS011;45901;47.600;9.890;2023-03-01T06:50:15;29.67;;;17.87;;
60030;SDS011;45901;47.600;9.890;2023-03-01T06:52:44;30.40;;;16.23;;
60030;SDS011;45901;47.600;9.890;2023-03-01T06:55:13;26.57;;;16.83;;
60030;SDS011;45901;47.600;9.890;2023-03-01T06:57:40;30.77;;;17.27;;
60030;SDS011;45901;47.600;9.890;2023-03-01T07:00:07;32.10;;;17.83;;
60030;SDS011;45901;47.600;9.890;2023-03-01T07:02:36;31.33;;;18.00;;
60030;SDS011;45901;47.600;9.890;2023-03-01T07:05:04;29.93;;;16.33;;
60030;SDS011;45901;47.600;9.890;2023-03-01T07:07:31;29.47;;;17.30;;
60030;SDS011;45901;47.600;9.890;2023-03-01T07:09:59;33.00;;;18.47;;
60030;SDS011;45901;47.600;9.890;2023-03-01T07:12:27;29.33;;;17.17;;
60030;SDS011;45901;47.600;9.890;2023-03-01T07:14:55;29.20;;;16.70;;
60030;SDS011;45901;47.600;9.890;2023-03-01T07:17:22;32.23;;;18.00;;
60030;SDS011;45901;47.600;9.890;2023-03-01T07:19:49;29.63;;;17.00;;
60030;SDS011;45901;47.600;9.890;2023-03-01T07:22:16;28.00;;;17.17;;
60030;SDS011;45901;47.600;9.890;2023-03-01T07:24:43;30.40;;;17.17;;
60030;SDS011;45901;47.600;9.890;2023-03-01T07:27:11;28.60;;;16.77;;
60030;SDS011;45901;47.600;9.890;2023-03-01T07:29:40;31.83;;;17.03;;
60030;SDS011;45901;47.600;9.890;2023-03-01T07:32:07;30.93;;;17.33;;
60030;SDS011;45901;47.600;9.890;2023-03-01T07:34:35;30.40;;;16.67;;
60030;SDS011;45901;47.600;9.890;2023-03-01T07:37:03;27.77;;;16.70;;
60030;SDS011;45901;47.600;9.890;2023-03-01T07:39:30;29.53;;;17.17;;
60030;SDS011;45901;47.600;9.890;2023-03-01T07:41:57;32.17;;;16.70;;
60030;SDS011;45901;47.600;9.890;2023-03-01T07:44:24;28.87;;;16.13;;
60030;SDS011;45901;47.600;9.890;2023-03-01T07:46:53;27.03;;;15.70;;
60030;SDS011;45901;47.600;9.890;2023-03-01T07:49:21;29.37;;;17.03;;
60030;SDS011;45901;47.600;9.890;2023-03-01T07:51:49;28.57;;;16.60;;
60030;SDS011;45901;47.600;9.890;2023-03-01T07:54:16;28.07;;;16.00;;
60030;SDS011;45901;47.600;9.890;2023-03-01T07:56:43;28.60;;;17.43;;
60030;SDS011;45901;47.600;9.890;2023-03-01T07:59:10;27.70;;;16.47;;
60030;SDS011;45901;47.600;9.890;2023-03-01T08:01:37;27.77;;;16.43;;
60030;SDS011;45901;47.600;9.890;2023-03-01T08:04:06;30.47;;;16.97;;
60030;SDS011;45901;47.600;9.890;2023-03-01T08:06:34;27.17;;;16.30;;
60030;SDS011;45901;47.600;9.890;2023-03-01T08:09:02;30.40;;;17.20;;
60030;SDS011;45901;47.600;9.890;2023-03-01T08:11:29;27.60;;;16.13;;
60030;SDS011;45901;47.600;9.890;2023-03-01T08:13:56;31.60;;;17.07;;
60030;SDS011;45901;47.600;9.890;2023-03-01T08:16:23;27.37;;;16.27;;
60030;SDS011;45901;47.600;9.890;2023-03-01T08:18:51;29.63;;;17.30;;
60030;SDS011;45901;47.600;9.890;2023-03-01T08:21:22;30.67;;;16.77;;
60030;SDS011;45901;47.600;9.890;2023-03-01T08:23:49;27.60;;;16.47;;
60030;SDS011;45901;47.600;9.890;2023-03-01T08:26:17;29.90;;;17.10;;
60030;SDS011;45901;47.600;9.890;2023-03-01T08:28:47;29.60;;;16.90;;
60030;SDS011;45901;47.600;9.890;2023-03-01T08:31:16;28.97;;;15.97;;
60030;SDS011;45901;47.600;9.890;2023-03-01T08:33:46;29.30;;;17.03;;
60030;SDS011;45901;47.600;9.890;2023-03-01T08:36:20;31.13;;;16.80;;
60030;SDS011;45901;47.600;9.890;2023-03-01T08:38:49;29.73;;;17.43;;
60030;SDS011;45901;47.600;9.890;2023-03-01T08:41:16;28.43;;;16.53;;
60030;SDS011;45901;47.600;9.890;2023-03-01T08:43:44;27.97;;;16.93;;
60030;SDS011;45901;47.600;9.890;2023-03-01T08:46:11;28.07;;;15.40;;
60030;SDS011;45901;47.600;9.890;2023-03-01T08:48:39;27.70;;;17.17;;
60030;SDS011;45901;47.600;9.890;2023-03-01T08:51:08;27.27;;;15.83;;
60030;SDS011;45901;47.600;9.890;2023-03-01T08:53:39;28.53;;;17.00;;
60030;SDS011;45901;47.600;9.890;2023-03-01T08:56:07;32.00;;;17.47;;
60030;SDS011;45901;47.600;9.890;2023-03-01T08:58:35;26.57;;;15.90;;
60030;SDS011;45901;47.600;9.890;2023-03-01T09:01:06;27.77;;;15.63;;
60030;SDS011;45901;47.600;9.890;2023-03-01T09:03:34;27.93;;;16.13;;
60030;SDS011;45901;47.600;9.890;2023-03-01T09:06:02;25.27;;;14.60;;
60030;SDS011;45901;47.600;9.890;2023-03-01T09:08:33;26.13;;;14.77;;
60030;SDS011;45901;47.600;9.890;2023-03-01T09:11:03;26.47;;;15.50;;
60030;SDS011;45901;47.600;9.890;2023-03-01T09:13:31;25.83;;;15.50;;
60030;SDS011;45901;47.600;9.890;2023-03-01T09:16:00;28.97;;;15.70;;
60030;SDS011;45901;47.600;9.890;2023-03-01T09:18:29;28.00;;;16.07;;
60030;SDS011;45901;47.600;9.890;2023-03-01T09:21:00;28.27;;;15.60;;
60030;SDS011;45901;47.600;9.890;2023-03-01T09:23:32;24.70;;;14.37;;
60030;SDS011;45901;47.600;9.890;2023-03-01T09:26:02;26.13;;;15.13;;
60030;SDS011;45901;47.600;9.890;2023-03-01T09:28:30;20.90;;;11.77;;
60030;SDS011;45901;47.600;9.890;2023-03-01T09:30:58;26.20;;;15.33;;
60030;SDS011;45901;47.600;9.890;2023-03-01T09:33:26;27.20;;;15.40;;
60030;SDS011;45901;47.600;9.890;2023-03-01T09:35:57;24.83;;;15.03;;
60030;SDS011;45901;47.600;9.890;2023-03-01T09:38:24;24.83;;;15.63;;
60030;SDS011;45901;47.600;9.890;2023-03-01T09:40:52;26.37;;;15.03;;
60030;SDS011;45901;47.600;9.890;2023-03-01T09:43:23;30.53;;;15.13;;
60030;SDS011;45901;47.600;9.890;2023-03-01T09:45:58;24.57;;;15.00;;
60030;SDS011;45901;47.600;9.890;2023-03-01T09:48:32;27.83;;;15.47;;
60030;SDS011;45901;47.600;9.890;2023-03-01T09:51:08;28.57;;;15.60;;
60030;SDS011;45901;47.600;9.890;2023-03-01T09:53:43;25.90;;;15.30;;
60030;SDS011;45901;47.600;9.890;2023-03-01T09:56:12;26.27;;;15.40;;
60030;SDS011;45901;47.600;9.890;2023-03-01T09:58:49;28.67;;;15.33;;
60030;SDS011;45901;47.600;9.890;2023-03-01T10:01:26;28.07;;;15.03;;
60030;SDS011;45901;47.600;9.890;2023-03-01T10:04:11;26.80;;;15.40;;
60030;SDS011;45901;47.600;9.890;2023-03-01T10:06:55;25.87;;;14.57;;
60030;SDS011;45901;47.600;9.890;2023-03-01T10:09:38;29.97;;;16.63;;
60030;SDS011;45901;47.600;9.890;2023-03-01T10:12:09;23.70;;;14.67;;
60030;SDS011;45901;47.600;9.890;2023-03-01T10:14:43;25.30;;;14.57;;
60030;SDS011;45901;47.600;9.890;2023-03-01T10:17:19;27.13;;;15.63;;
60030;SDS011;45901;47.600;9.890;2023-03-01T10:19:56;26.63;;;15.63;;
60030;SDS011;45901;47.600;9.890;2023-03-01T10:22:40;30.63;;;15.80;;
60030;SDS011;45901;47.600;9.890;2023-03-01T10:25:12;27.63;;;16.40;;
60030;SDS011;45901;47.600;9.890;2023-03-01T10:27:43;31.20;;;17.70;;
60030;SDS011;45901;47.600;9.890;2023-03-01T10:30:20;26.07;;;15.07;;
60030;SDS011;45901;47.600;9.890;2023-03-01T10:33:01;27.13;;;16.27;;
60030;SDS011;45901;47.600;9.890;2023-03-01T10:35:32;27.10;;;15.43;;
60030;SDS011;45901;47.600;9.890;2023-03-01T10:38:05;26.97;;;14.57;;
60030;SDS011;45901;47.600;9.890;2023-03-01T10:40:34;27.27;;;14.67;;
60030;SDS011;45901;47.600;9.890;2023-03-01T10:43:15;27.47;;;16.60;;
60030;SDS011;45901;47.600;9.890;2023-03-01T10:45:44;26.93;;;15.77;;
60030;SDS011;45901;47.600;9.890;2023-03-01T10:48:12;24.90;;;15.27;;
60030;SDS011;45901;47.600;9.890;2023-03-01T10:50:42;22.50;;;13.93;;
60030;SDS011;45901;47.600;9.890;2023-03-01T10:56:01;23.23;;;13.87;;
60030;SDS011;45901;47.600;9.890;2023-03-01T10:58:31;24.70;;;15.00;;
60030;SDS011;45901;47.600;9.890;2023-03-01T11:01:02;25.83;;;15.73;;
60030;SDS011;45901;47.600;9.890;2023-03-01T11:03:31;24.90;;;14.70;;
60030;SDS011;45901;47.600;9.890;2023-03-01T11:06:02;26.43;;;15.60;;
60030;SDS011;45901;47.600;9.890;2023-03-01T11:08:46;26.73;;;15.37;;
60030;SDS011;45901;47.600;9.890;2023-03-01T11:11:20;26.60;;;15.73;;
60030;SDS011;45901;47.600;9.890;2023-03-01T11:13:56;24.80;;;15.53;;
60030;SDS011;45901;47.600;9.890;2023-03-01T11:16:28;26.30;;;16.53;;
60030;SDS011;45901;47.600;9.890;2023-03-01T11:19:12;25.97;;;15.67;;
60030;SDS011;45901;47.600;9.890;2023-03-01T11:21:47;25.03;;;14.63;;
60030;SDS011;45901;47.600;9.890;2023-03-01T11:24:24;28.23;;;17.07;;
60030;SDS011;45901;47.600;9.890;2023-03-01T11:27:01;25.60;;;15.93;;
60030;SDS011;45901;47.600;9.890;2023-03-01T11:29:35;27.50;;;15.57;;
60030;SDS011;45901;47.600;9.890;2023-03-01T11:32:10;27.30;;;16.57;;
60030;SDS011;45901;47.600;9.890;2023-03-01T11:34:40;27.90;;;16.87;;
60030;SDS011;45901;47.600;9.890;2023-03-01T11:37:14;25.57;;;16.27;;
60030;SDS011;45901;47.600;9.890;2023-03-01T11:40:00;24.43;;;15.63;;
60030;SDS011;45901;47.600;9.890;2023-03-01T11:42:42;27.33;;;15.13;;
60030;SDS011;45901;47.600;9.890;2023-03-01T11:45:18;30.33;;;17.03;;
60030;SDS011;45901;47.600;9.890;2023-03-01T11:47:54;28.47;;;16.23;;
60030;SDS011;45901;47.600;9.890;2023-03-01T11:50:34;26.57;;;15.47;;
60030;SDS011;45901;47.600;9.890;2023-03-01T11:56:16;27.63;;;16.60;;
60030;SDS011;45901;47.600;9.890;2023-03-01T11:59:03;26.43;;;16.53;;
60030;SDS011;45901;47.600;9.890;2023-03-01T12:02:10;26.90;;;16.63;;
60030;SDS011;45901;47.600;9.890;2023-03-01T12:05:11;26.60;;;15.27;;
60030;SDS011;45901;47.600;9.890;2023-03-01T12:08:29;28.50;;;16.10;;
60030;SDS011;45901;47.600;9.890;2023-03-01T12:11:07;26.40;;;16.63;;
60030;SDS011;45901;47.600;9.890;2023-03-01T12:13:55;26.47;;;16.70;;
60030;SDS011;45901;47.600;9.890;2023-03-01T12:19:48;26.57;;;16.53;;
60030;SDS011;45901;47.600;9.890;2023-03-01T12:22:42;29.77;;;16.57;;
60030;SDS011;45901;47.600;9.890;2023-03-01T12:25:28;29.13;;;16.63;;
60030;SDS011;45901;47.600;9.890;2023-03-01T12:31:21;27.60;;;17.40;;
60030;SDS011;45901;47.600;9.890;2023-03-01T12:34:21;27.40;;;16.10;;
60030;SDS011;45901;47.600;9.890;2023-03-01T12:37:19;29.43;;;17.27;;
60030;SDS011;45901;47.600;9.890;2023-03-01T12:40:05;27.83;;;17.00;;
60030;SDS011;45901;47.600;9.890;2023-03-01T12:42:56;27.70;;;17.30;;
60030;SDS011;45901;47.600;9.890;2023-03-01T12:45:48;24.90;;;16.20;;
60030;SDS011;45901;47.600;9.890;2023-03-01T12:48:32;30.00;;;17.30;;
60030;SDS011;45901;47.600;9.890;2023-03-01T12:51:11;31.20;;;15.90;;
60030;SDS011;45901;47.600;9.890;2023-03-01T12:53:42;28.53;;;17.03;;
60030;SDS011;45901;47.600;9.890;2023-03-01T12:56:15;24.90;;;15.53;;
60030;SDS011;45901;47.600;9.890;2023-03-01T12:58:50;25.37;;;16.00;;
60030;SDS011;45901;47.600;9.890;2023-03-01T13:01:29;26.73;;;16.53;;
60030;SDS011;45901;47.600;9.890;2023-03-01T13:04:08;28.93;;;16.63;;
60030;SDS011;45901;47.600;9.890;2023-03-01T13:06:53;28.40;;;15.67;;
60030;SDS011;45901;47.600;9.890;2023-03-01T13:09:34;29.53;;;16.37;;
60030;SDS011;45901;47.600;9.890;2023-03-01T13:15:25;29.87;;;17.17;;
60030;SDS011;45901;47.600;9.890;2023-03-01T13:17:55;27.03;;;15.50;;
60030;SDS011;45901;47.600;9.890;2023-03-01T13:20:24;25.33;;;15.17;;
60030;SDS011;45901;47.600;9.890;2023-03-01T13:23:02;26.30;;;15.43;;
60030;SDS011;45901;47.600;9.890;2023-03-01T13:25:50;25.17;;;15.77;;
60030;SDS011;45901;47.600;9.890;2023-03-01T13:28:41;25.17;;;14.93;;
60030;SDS011;45901;47.600;9.890;2023-03-01T13:34:39;24.90;;;15.50;;
60030;SDS011;45901;47.600;9.890;2023-03-01T13:37:20;28.27;;;15.70;;
60030;SDS011;45901;47.600;9.890;2023-03-01T13:39:55;30.27;;;16.17;;
60030;SDS011;45901;47.600;9.890;2023-03-01T13:45:20;26.23;;;15.67;;
60030;SDS011;45901;47.600;9.890;2023-03-01T13:48:00;26.67;;;15.77;;
60030;SDS011;45901;47.600;9.890;2023-03-01T13:50:43;28.40;;;16.07;;
60030;SDS011;45901;47.600;9.890;2023-03-01T13:53:16;26.23;;;15.50;;
60030;SDS011;45901;47.600;9.890;2023-03-01T13:55:46;26.27;;;15.03;;
60030;SDS011;45901;47.600;9.890;2023-03-01T13:58:21;24.73;;;14.77;;
60030;SDS011;45901;47.600;9.890;2023-03-01T14:05:10;26.23;;;15.37;;
60030;SDS011;45901;47.600;9.890;2023-03-01T14:07:37;23.93;;;15.03;;
60030;SDS011;45901;47.600;9.890;2023-03-01T14:10:07;26.83;;;15.43;;
60030;SDS011;45901;47.600;9.890;2023-03-01T14:12:39;24.90;;;15.57;;
60030;SDS011;45901;47.600;9.890;2023-03-01T14:15:15;28.03;;;16.93;;
60030;SDS011;45901;47.600;9.890;2023-03-01T14:17:52;26.03;;;15.37;;
60030;SDS011;45901;47.600;9.890;2023-03-01T14:20:29;24.10;;;15.70;;
60030;SDS011;45901;47.600;9.890;2023-03-01T14:23:01;26.70;;;16.13;;
60030;SDS011;45901;47.600;9.890;2023-03-01T14:25:37;26.93;;;15.97;;
60030;SDS011;45901;47.600;9.890;2023-03-01T14:28:15;26.63;;;16.37;;
60030;SDS011;45901;47.600;9.890;2023-03-01T14:31:36;25.33;;;15.50;;
60030;SDS011;45901;47.600;9.890;2023-03-01T14:34:16;25.53;;;16.10;;
60030;SDS011;45901;47.600;9.890;2023-03-01T14:36:48;25.47;;;15.97;;
60030;SDS011;45901;47.600;9.890;2023-03-01T14:39:16;24.97;;;15.43;;
60030;SDS011;45901;47.600;9.890;2023-03-01T14:41:45;26.50;;;16.13;;
60030;SDS011;45901;47.600;9.890;2023-03-01T14:44:14;23.73;;;14.47;;
60030;SDS011;45901;47.600;9.890;2023-03-01T14:46:51;25.40;;;15.87;;
60030;SDS011;45901;47.600;9.890;2023-03-01T14:49:20;25.57;;;14.93;;
60030;SDS011;45901;47.600;9.890;2023-03-01T14:51:54;23.00;;;14.83;;
60030;SDS011;45901;47.600;9.890;2023-03-01T14:54:27;25.87;;;16.20;;
60030;SDS011;45901;47.600;9.890;2023-03-01T14:57:03;24.83;;;15.50;;
60030;SDS011;45901;47.600;9.890;2023-03-01T14:59:32;24.17;;;14.67;;
60030;SDS011;45901;47.600;9.890;2023-03-01T15:02:00;27.50;;;16.17;;
60030;SDS011;45901;47.600;9.890;2023-03-01T15:04:28;24.63;;;15.50;;
60030;SDS011;45901;47.600;9.890;2023-03-01T15:06:58;23.03;;;13.67;;
60030;SDS011;45901;47.600;9.890;2023-03-01T15:09:29;26.87;;;15.40;;
60030;SDS011;45901;47.600;9.890;2023-03-01T15:12:00;25.17;;;14.80;;
60030;SDS011;45901;47.600;9.890;2023-03-01T15:14:47;27.27;;;15.90;;
60030;SDS011;45901;47.600;9.890;2023-03-01T15:17:20;28.33;;;15.13;;